createdAt,value
2023-04-03T00:01:10.886Z,9.93
2023-04-03T00:03:38.777Z,8.32
2023-04-03T00:06:11.494Z,11.32
2023-04-03T00:08:41.324Z,10.80
2023-04-03T00:11:09.779Z,10.57
2023-04-03T00:13:38.582Z,9.05
2023-04-03T00:16:07.333Z,12.18
2023-04-03T00:18:35.392Z,7.32
2023-04-03T00:21:03.334Z,9.73
2023-04-03T00:23:30.778Z,7.38
2023-04-03T00:25:58.225Z,6.78
2023-04-03T00:28:25.810Z,14.30
2023-04-03T00:30:53.710Z,11.07
2023-04-03T00:33:22.944Z,9.35
2023-04-03T00:35:50.617Z,8.75
2023-04-03T00:38:19.016Z,8.85
2023-04-03T00:40:49.055Z,6.60
2023-04-03T00:43:20.822Z,15.07
2023-04-03T00:48:41.340Z,9.52
2023-04-03T00:51:14.060Z,10.18
2023-04-03T00:53:47.389Z,11.98
2023-04-03T00:56:18.827Z,7.88
2023-04-03T00:58:58.589Z,8.65
2023-04-03T01:01:28.053Z,9.90
2023-04-03T01:03:56.655Z,14.75
2023-04-03T01:06:31.959Z,9.98
2023-04-03T01:09:06.141Z,9.07
2023-04-03T01:11:33.932Z,9.18
2023-04-03T01:14:03.088Z,7.40
2023-04-03T01:16:32.873Z,11.35
2023-04-03T01:19:02.861Z,12.35
2023-04-03T01:21:30.760Z,10.95
2023-04-03T01:24:00.880Z,10.65
2023-04-03T01:26:29.266Z,11.30
2023-04-03T01:28:57.280Z,6.25
2023-04-03T01:31:46.505Z,13.20
2023-04-03T01:34:14.937Z,8.25
2023-04-03T01:36:42.380Z,6.13
2023-04-03T01:39:09.956Z,8.57
2023-04-03T01:41:37.606Z,8.20
2023-04-03T01:44:14.581Z,9.35
2023-04-03T01:46:43.327Z,11.85
2023-04-03T01:49:11.050Z,6.55
2023-04-03T01:51:38.921Z,8.82
2023-04-03T01:54:06.730Z,6.90
2023-04-03T01:56:34.176Z,7.93
2023-04-03T01:59:01.640Z,9.50
2023-04-03T02:01:29.564Z,8.85
2023-04-03T02:03:57.426Z,15.80
2023-04-03T02:06:24.955Z,15.38
2023-04-03T02:08:52.726Z,9.35
2023-04-03T02:11:20.066Z,9.18
2023-04-03T02:13:47.389Z,7.85
2023-04-03T02:16:14.782Z,8.60
2023-04-03T02:18:42.800Z,6.93
2023-04-03T02:21:10.330Z,6.93
2023-04-03T02:23:38.247Z,13.98
2023-04-03T02:26:08.332Z,11.75
2023-04-03T02:28:36.449Z,10.02
2023-04-03T02:31:05.350Z,14.57
2023-04-03T02:33:33.906Z,7.03
2023-04-03T02:36:01.893Z,10.60
2023-04-03T02:38:29.494Z,6.25
2023-04-03T02:41:04.936Z,8.57
2023-04-03T02:43:33.314Z,11.70
2023-04-03T02:46:01.278Z,9.10
2023-04-03T02:48:29.433Z,10.85
2023-04-03T02:50:56.829Z,11.63
2023-04-03T02:53:24.424Z,14.73
2023-04-03T02:55:52.817Z,10.77
2023-04-03T02:58:20.862Z,13.23
2023-04-03T03:00:48.508Z,10.15
2023-04-03T03:03:16.408Z,9.95
2023-04-03T03:05:43.831Z,9.07
2023-04-03T03:08:11.250Z,8.57
2023-04-03T03:10:39.006Z,9.55
2023-04-03T03:13:08.825Z,10.45
2023-04-03T03:15:36.188Z,8.18
2023-04-03T03:18:03.750Z,8.68
2023-04-03T03:20:31.615Z,11.18
2023-04-03T03:22:59.721Z,11.07
2023-04-03T03:25:27.697Z,11.18
2023-04-03T03:27:55.266Z,10.80
2023-04-03T03:30:23.016Z,8.73
2023-04-03T03:32:50.939Z,10.25
2023-04-03T03:35:18.301Z,9.70
2023-04-03T03:37:45.683Z,10.48
2023-04-03T03:40:14.164Z,15.27
2023-04-03T03:42:41.628Z,12.77
2023-04-03T03:45:09.828Z,16.05
2023-04-03T03:47:37.325Z,13.20
2023-04-03T03:50:05.350Z,14.25
2023-04-03T03:52:32.848Z,8.43
2023-04-03T03:55:00.966Z,10.30
2023-04-03T03:57:29.785Z,10.20
2023-04-03T03:59:57.897Z,8.00
2023-04-03T04:02:26.112Z,8.82
2023-04-03T04:04:54.728Z,15.18
2023-04-03T04:07:23.184Z,12.43
2023-04-03T04:09:50.826Z,14.02
2023-04-03T04:12:18.689Z,18.48
2023-04-03T04:14:47.730Z,17.98
2023-04-03T04:17:16.577Z,17.77
2023-04-03T04:19:44.027Z,19.10
2023-04-03T04:22:12.516Z,10.40
2023-04-03T04:24:40.290Z,15.80
2023-04-03T04:27:09.479Z,10.88
2023-04-03T04:29:38.234Z,13.73
2023-04-03T04:32:07.541Z,14.48
2023-04-03T04:34:36.053Z,14.18
2023-04-03T04:37:04.158Z,12.60
2023-04-03T04:39:32.196Z,12.07
2023-04-03T04:42:02.877Z,19.02
2023-04-03T04:47:00.570Z,14.93
2023-04-03T04:49:29.309Z,12.90
2023-04-03T04:51:57.251Z,11.43
2023-04-03T04:54:29.414Z,15.93
2023-04-03T04:56:58.021Z,14.68
2023-04-03T04:59:26.609Z,13.45
2023-04-03T05:01:56.917Z,14.45
2023-04-03T05:04:24.375Z,17.80
2023-04-03T05:06:56.456Z,12.50
2023-04-03T05:09:27.917Z,20.42
2023-04-03T05:11:55.625Z,11.15
2023-04-03T05:14:26.446Z,15.52
2023-04-03T05:16:55.014Z,14.45
2023-04-03T05:19:26.222Z,13.07
2023-04-03T05:21:53.998Z,13.48
2023-04-03T05:24:21.780Z,14.07
2023-04-03T05:26:49.585Z,16.45
2023-04-03T05:29:18.003Z,20.00
2023-04-03T05:31:47.299Z,11.90
2023-04-03T05:34:14.915Z,16.73
2023-04-03T05:36:43.318Z,15.98
2023-04-03T05:39:12.324Z,18.50
2023-04-03T05:41:43.027Z,13.02
2023-04-03T05:44:10.756Z,12.77
2023-04-03T05:46:38.743Z,14.40
2023-04-03T05:49:09.135Z,20.40
2023-04-03T05:51:39.602Z,12.55
2023-04-03T05:54:25.427Z,16.90
2023-04-03T05:56:57.675Z,14.98
2023-04-03T05:59:26.413Z,15.80
2023-04-03T06:01:57.136Z,20.40
2023-04-03T06:04:25.772Z,19.77
2023-04-03T06:06:56.531Z,20.67
2023-04-03T06:09:27.244Z,28.20
2023-04-03T06:11:54.831Z,21.60
2023-04-03T06:14:24.378Z,12.18
2023-04-03T06:16:51.806Z,14.32
2023-04-03T06:19:19.788Z,16.27
2023-04-03T06:21:51.458Z,19.67
2023-04-03T06:24:20.902Z,22.55
2023-04-03T06:26:49.891Z,26.88
2023-04-03T06:29:17.272Z,19.13
2023-04-03T06:31:44.839Z,15.05
2023-04-03T06:34:13.577Z,21.17
2023-04-03T06:36:41.196Z,17.30
2023-04-03T06:39:14.225Z,17.88
2023-04-03T06:41:42.137Z,17.05
2023-04-03T06:44:12.828Z,18.10
2023-04-03T06:46:40.877Z,15.85
2023-04-03T06:49:08.766Z,29.23
2023-04-03T06:51:37.001Z,18.13
2023-04-03T06:54:06.979Z,22.42
2023-04-03T06:56:34.885Z,17.90
2023-04-03T06:59:03.202Z,24.25
2023-04-03T07:01:31.856Z,21.27
2023-04-03T07:03:59.867Z,27.33
2023-04-03T07:06:30.385Z,18.55
2023-04-03T07:08:57.776Z,17.73
2023-04-03T07:11:25.507Z,21.73
2023-04-03T07:13:53.597Z,16.90
2023-04-03T07:16:21.339Z,20.80
2023-04-03T07:18:49.735Z,16.63
2023-04-03T07:21:17.113Z,34.13
2023-04-03T07:23:44.536Z,30.42
2023-04-03T07:26:11.890Z,17.13
2023-04-03T07:28:41.189Z,13.98
2023-04-03T07:31:14.392Z,16.77
2023-04-03T07:33:43.044Z,15.57
2023-04-03T07:36:12.269Z,14.45
2023-04-03T07:38:39.717Z,22.70
2023-04-03T07:41:07.777Z,13.52
2023-04-03T07:43:35.995Z,16.77
2023-04-03T07:46:06.779Z,16.58
2023-04-03T07:48:36.069Z,15.35
2023-04-03T07:51:05.630Z,18.60
2023-04-03T07:53:33.914Z,20.40
2023-04-03T07:56:03.688Z,9.13
2023-04-03T07:58:31.206Z,12.02
2023-04-03T08:00:59.313Z,11.82
2023-04-03T08:03:27.817Z,12.77
2023-04-03T08:05:55.474Z,10.68
2023-04-03T08:08:24.667Z,10.88
2023-04-03T08:10:54.115Z,13.32
2023-04-03T08:13:22.739Z,16.85
2023-04-03T08:15:51.814Z,9.95
2023-04-03T08:18:22.380Z,7.28
2023-04-03T08:20:49.781Z,11.65
2023-04-03T08:23:19.865Z,9.88
2023-04-03T08:25:47.911Z,7.30
2023-04-03T08:28:15.974Z,7.90
2023-04-03T08:30:43.933Z,8.55
2023-04-03T08:33:11.784Z,7.60
2023-04-03T08:35:44.063Z,12.52
2023-04-03T08:38:11.817Z,7.38
2023-04-03T08:40:41.311Z,8.93
2023-04-03T08:43:32.259Z,7.78
2023-04-03T08:46:07.137Z,21.13
2023-04-03T08:48:40.849Z,11.75
2023-04-03T08:51:21.506Z,8.02
2023-04-03T08:54:21.386Z,8.82
2023-04-03T08:56:49.193Z,6.80
2023-04-03T08:59:25.311Z,6.65
2023-04-03T09:01:54.926Z,10.13
2023-04-03T09:04:22.531Z,9.15
2023-04-03T09:06:56.641Z,4.40
2023-04-03T09:09:42.730Z,4.40
2023-04-03T09:12:20.085Z,6.25
2023-04-03T09:15:16.436Z,7.80
2023-04-03T09:17:45.989Z,12.77
2023-04-03T09:20:32.508Z,3.65
2023-04-03T09:23:00.780Z,4.25
2023-04-03T09:25:34.324Z,7.70
2023-04-03T09:28:03.559Z,4.30
2023-04-03T09:30:31.041Z,3.13
2023-04-03T09:32:59.053Z,4.55
2023-04-03T09:35:47.165Z,5.07
2023-04-03T09:38:19.297Z,4.55
2023-04-03T09:41:14.851Z,7.80
2023-04-03T09:43:54.040Z,4.57
2023-04-03T09:46:31.530Z,3.83
2023-04-03T09:49:08.959Z,4.35
2023-04-03T09:51:38.474Z,3.78
2023-04-03T09:54:31.709Z,2.50
2023-04-03T09:57:07.354Z,4.53
2023-04-03T09:59:36.071Z,3.50
2023-04-03T10:02:22.054Z,10.50
2023-04-03T10:05:06.307Z,3.92
2023-04-03T10:07:40.248Z,3.22
2023-04-03T10:10:27.177Z,5.50
2023-04-03T10:13:22.002Z,4.68
2023-04-03T10:15:55.196Z,4.03
2023-04-03T10:18:44.072Z,3.63
2023-04-03T10:21:27.041Z,5.13
2023-04-03T10:24:08.072Z,6.70
2023-04-03T10:26:42.227Z,5.15
2023-04-03T10:29:31.770Z,4.47
2023-04-03T10:32:02.515Z,2.78
2023-04-03T10:34:36.658Z,4.40
2023-04-03T10:37:25.070Z,6.22
2023-04-03T10:39:58.477Z,5.22
2023-04-03T10:42:50.973Z,2.65
2023-04-03T10:45:32.179Z,4.95
2023-04-03T10:48:10.235Z,5.82
2023-04-03T10:51:05.670Z,4.50
2023-04-03T10:53:36.693Z,2.38
2023-04-03T10:56:16.587Z,2.47
2023-04-03T10:58:55.689Z,3.90
2023-04-03T11:01:29.804Z,1.88
2023-04-03T11:04:05.366Z,2.03
2023-04-03T11:06:55.271Z,2.55
2023-04-03T11:09:32.386Z,2.53
2023-04-03T11:12:11.654Z,2.88
2023-04-03T11:14:40.129Z,3.90
2023-04-03T11:17:19.561Z,3.63
2023-04-03T11:20:18.457Z,2.25
2023-04-03T11:22:59.745Z,4.13
2023-04-03T11:25:30.180Z,2.80
2023-04-03T11:28:00.247Z,2.20
2023-04-03T11:30:34.714Z,2.97
2023-04-03T11:33:24.209Z,5.85
2023-04-03T11:35:57.488Z,2.15
2023-04-03T11:38:31.227Z,2.15
2023-04-03T11:40:59.715Z,4.22
2023-04-03T11:43:32.372Z,2.92
2023-04-03T11:46:04.123Z,4.40
2023-04-03T11:48:34.472Z,3.17
2023-04-03T11:51:23.562Z,2.80
2023-04-03T11:53:50.922Z,4.05
2023-04-03T11:56:21.505Z,4.00
2023-04-03T11:59:11.728Z,3.47
2023-04-03T12:01:47.794Z,3.63
2023-04-03T12:04:17.656Z,1.63
2023-04-03T12:06:48.330Z,4.55
2023-04-03T12:09:24.640Z,4.03
2023-04-03T12:11:53.257Z,2.30
2023-04-03T12:14:26.178Z,3.63
2023-04-03T12:16:58.680Z,1.73
2023-04-03T12:19:42.823Z,5.80
2023-04-03T12:22:21.670Z,3.33
2023-04-03T12:24:52.800Z,3.00
2023-04-03T12:27:35.458Z,8.30
2023-04-03T12:30:24.199Z,3.05
2023-04-03T12:33:13.685Z,2.20
2023-04-03T12:35:49.846Z,4.03
2023-04-03T12:38:42.066Z,2.35
2023-04-03T12:41:27.884Z,4.22
2023-04-03T12:44:17.592Z,4.70
2023-04-03T12:46:49.508Z,3.10
2023-04-03T12:49:38.297Z,6.60
2023-04-03T12:52:17.948Z,2.88
2023-04-03T12:54:48.570Z,2.33
2023-04-03T12:57:16.363Z,6.15
2023-04-03T12:59:47.584Z,1.92
2023-04-03T13:02:36.497Z,4.03
2023-04-03T13:05:16.815Z,2.08
2023-04-03T13:07:45.233Z,2.97
2023-04-03T13:10:19.511Z,3.53
2023-04-03T13:12:55.371Z,2.17
2023-04-03T13:15:41.430Z,2.45
2023-04-03T13:18:32.252Z,2.05
2023-04-03T13:21:06.785Z,0.75
2023-04-03T13:23:37.612Z,3.25
2023-04-03T13:26:07.472Z,2.28
2023-04-03T13:28:36.511Z,4.07
2023-04-03T13:31:18.903Z,4.78
2023-04-03T13:33:58.521Z,10.25
2023-04-03T13:36:31.806Z,5.38
2023-04-03T13:39:22.253Z,4.57
2023-04-03T13:41:52.623Z,4.70
2023-04-03T13:44:22.909Z,6.35
2023-04-03T13:46:52.638Z,8.93
2023-04-03T13:49:29.706Z,5.97
2023-04-03T13:52:07.487Z,6.70
2023-04-03T13:54:39.654Z,3.95
2023-04-03T13:57:16.816Z,10.30
2023-04-03T13:59:46.953Z,7.38
2023-04-03T14:02:21.412Z,5.70
2023-04-03T14:04:58.887Z,2.30
2023-04-03T14:07:27.203Z,7.32
2023-04-03T14:09:55.388Z,5.97
2023-04-03T14:12:40.143Z,7.07
2023-04-03T14:15:21.081Z,9.77
2023-04-03T14:17:48.919Z,3.97
2023-04-03T14:20:19.679Z,4.18
2023-04-03T14:22:47.401Z,2.75
2023-04-03T14:25:14.852Z,3.25
2023-04-03T14:27:45.734Z,9.40
2023-04-03T14:30:27.720Z,12.18
2023-04-03T14:32:55.927Z,3.13
2023-04-03T14:35:24.814Z,7.03
2023-04-03T14:37:54.135Z,6.35
2023-04-03T14:40:28.172Z,2.92
2023-04-03T14:42:56.415Z,7.40
2023-04-03T14:45:24.222Z,8.32
2023-04-03T14:47:56.893Z,4.30
2023-04-03T14:50:26.351Z,6.82
2023-04-03T14:52:57.540Z,2.45
2023-04-03T14:55:26.958Z,4.97
2023-04-03T14:57:55.256Z,5.97
2023-04-03T15:00:24.038Z,7.15
2023-04-03T15:02:52.081Z,3.42
2023-04-03T15:05:20.616Z,13.48
2023-04-03T15:07:55.459Z,4.32
2023-04-03T15:10:31.472Z,3.65
2023-04-03T15:12:59.118Z,5.68
2023-04-03T15:15:30.648Z,8.02
2023-04-03T15:17:59.104Z,4.63
2023-04-03T15:20:28.777Z,10.52
2023-04-03T15:22:57.524Z,3.38
2023-04-03T15:25:26.348Z,9.70
2023-04-03T15:27:57.637Z,6.18
2023-04-03T15:30:25.556Z,8.20
2023-04-03T15:32:54.225Z,8.15
2023-04-03T15:35:22.522Z,5.00
2023-04-03T15:37:50.493Z,6.07
2023-04-03T15:40:17.785Z,9.15
2023-04-03T15:42:45.786Z,6.07
2023-04-03T15:45:13.155Z,3.83
2023-04-03T15:47:41.143Z,4.65
2023-04-03T15:50:09.216Z,5.90
2023-04-03T15:52:36.741Z,5.70
2023-04-03T15:55:05.223Z,7.88
2023-04-03T16:00:07.444Z,10.20
2023-04-03T16:02:35.165Z,9.93
2023-04-03T16:05:03.453Z,13.38
2023-04-03T16:07:31.423Z,9.27
2023-04-03T16:09:58.821Z,5.93
2023-04-03T16:12:26.622Z,9.68
2023-04-03T16:14:53.887Z,6.10
2023-04-03T16:17:21.325Z,8.73
2023-04-03T16:19:48.771Z,5.95
2023-04-03T16:22:16.101Z,5.00
2023-04-03T16:24:43.593Z,6.80
2023-04-03T16:27:10.957Z,5.88
2023-04-03T16:29:38.769Z,2.58
2023-04-03T16:32:07.052Z,6.93
2023-04-03T16:34:34.643Z,5.00
2023-04-03T16:37:02.570Z,11.68
2023-04-03T16:39:30.741Z,5.57
2023-04-03T16:41:58.522Z,9.18
2023-04-03T16:44:27.115Z,10.07
2023-04-03T16:46:55.022Z,5.00
2023-04-03T16:49:22.468Z,16.83
2023-04-03T16:51:50.443Z,11.00
2023-04-03T16:54:17.839Z,12.73
2023-04-03T16:56:45.569Z,5.57
2023-04-03T16:59:12.939Z,5.35
2023-04-03T17:01:40.618Z,2.95
2023-04-03T17:04:08.023Z,4.47
2023-04-03T17:06:35.462Z,7.55
2023-04-03T17:09:03.802Z,11.38
2023-04-03T17:11:32.306Z,5.22
2023-04-03T17:13:59.907Z,5.95
2023-04-03T17:16:30.985Z,3.17
2023-04-03T17:18:58.345Z,5.35
2023-04-03T17:21:25.992Z,10.57
2023-04-03T17:23:58.737Z,8.95
2023-04-03T17:26:27.223Z,8.98
2023-04-03T17:28:54.595Z,6.68
2023-04-03T17:31:22.457Z,6.80
2023-04-03T17:33:50.617Z,5.70
2023-04-03T17:36:18.369Z,6.25
2023-04-03T17:38:48.371Z,3.33
2023-04-03T17:41:15.674Z,6.43
2023-04-03T17:43:43.009Z,7.00
2023-04-03T17:46:11.730Z,11.93
2023-04-03T17:48:41.430Z,15.50
2023-04-03T17:51:12.489Z,13.25
2023-04-03T17:53:41.140Z,35.55
2023-04-03T17:56:14.710Z,24.55
2023-04-03T17:58:43.953Z,20.63
2023-04-03T18:01:23.639Z,11.60
2023-04-03T18:03:54.559Z,10.52
2023-04-03T18:06:26.646Z,21.60
2023-04-03T18:09:07.474Z,15.60
2023-04-03T18:11:35.332Z,23.60
2023-04-03T18:14:05.013Z,12.00
2023-04-03T18:16:32.434Z,15.20
2023-04-03T18:19:17.744Z,5.13
2023-04-03T18:21:48.101Z,8.32
2023-04-03T18:24:18.329Z,4.55
2023-04-03T18:26:51.115Z,5.18
2023-04-03T18:29:19.337Z,9.23
2023-04-03T18:31:50.214Z,5.68
2023-04-03T18:34:18.077Z,8.00
2023-04-03T18:36:46.507Z,6.40
2023-04-03T18:39:14.358Z,4.18
2023-04-03T18:41:43.141Z,6.03
2023-04-03T18:44:14.818Z,8.15
2023-04-03T18:49:12.455Z,6.20
2023-04-03T18:51:41.246Z,6.07
2023-04-03T18:54:10.045Z,8.38
2023-04-03T18:56:38.433Z,7.93
2023-04-03T18:59:05.787Z,4.78
2023-04-03T19:01:35.014Z,8.15
2023-04-03T19:04:03.157Z,10.88
2023-04-03T19:06:32.038Z,7.32
2023-04-03T19:08:59.703Z,6.97
2023-04-03T19:11:29.635Z,6.85
2023-04-03T19:14:14.453Z,5.95
2023-04-03T19:16:44.581Z,7.97
2023-04-03T19:19:12.638Z,5.60
2023-04-03T19:21:41.445Z,5.68
2023-04-03T19:24:10.979Z,5.88
2023-04-03T19:26:39.268Z,4.65
2023-04-03T19:29:07.158Z,6.35
2023-04-03T19:31:37.029Z,11.15
2023-04-03T19:34:06.770Z,5.95
2023-04-03T19:36:35.208Z,4.63
2023-04-03T19:39:03.841Z,5.32
2023-04-03T19:41:34.231Z,6.15
2023-04-03T19:44:03.586Z,3.65
2023-04-03T19:46:31.454Z,5.60
2023-04-03T19:48:59.249Z,5.05
2023-04-03T19:51:27.174Z,2.25
2023-04-03T19:53:55.238Z,6.30
2023-04-03T19:56:23.545Z,6.68
2023-04-03T19:58:54.307Z,5.43
2023-04-03T20:01:24.697Z,6.10
2023-04-03T20:03:52.395Z,3.08
2023-04-03T20:06:21.512Z,3.08
2023-04-03T20:08:49.305Z,9.57
2023-04-03T20:11:17.429Z,5.55
2023-04-03T20:13:45.517Z,6.00
2023-04-03T20:16:13.146Z,3.60
2023-04-03T20:18:42.328Z,7.97
2023-04-03T20:21:10.995Z,5.57
2023-04-03T20:23:38.747Z,3.38
2023-04-03T20:26:13.022Z,5.25
2023-04-03T20:28:44.871Z,7.35
2023-04-03T20:31:14.103Z,4.82
2023-04-03T20:33:41.900Z,5.05
2023-04-03T20:36:09.318Z,6.00
2023-04-03T20:38:36.651Z,4.35
2023-04-03T20:41:04.904Z,10.25
2023-04-03T20:43:32.472Z,7.60
2023-04-03T20:46:02.457Z,6.47
2023-04-03T20:48:31.255Z,9.73
2023-04-03T20:50:59.182Z,4.78
2023-04-03T20:53:27.256Z,4.50
2023-04-03T20:56:00.430Z,6.05
2023-04-03T20:58:35.514Z,8.50
2023-04-03T21:01:03.574Z,3.42
2023-04-03T21:03:31.099Z,5.40
2023-04-03T21:06:01.142Z,3.80
2023-04-03T21:09:06.661Z,4.38
2023-04-03T21:12:12.764Z,4.28
2023-04-03T21:15:17.421Z,5.13
2023-04-03T21:18:08.167Z,5.97
2023-04-03T21:20:37.166Z,4.10
2023-04-03T21:23:06.376Z,4.15
2023-04-03T21:25:34.308Z,4.90
2023-04-03T21:28:02.651Z,5.95
2023-04-03T21:30:30.023Z,5.03
2023-04-03T21:32:57.739Z,5.78
2023-04-03T21:35:26.126Z,14.88
2023-04-03T21:37:54.344Z,29.50
2023-04-03T21:40:21.674Z,18.83
2023-04-03T21:42:54.324Z,23.98
2023-04-03T21:45:21.805Z,13.02
2023-04-03T21:47:49.161Z,15.90
2023-04-03T21:50:16.611Z,9.93
2023-04-03T21:52:44.069Z,15.52
2023-04-03T21:55:11.408Z,12.38
2023-04-03T21:57:39.079Z,7.53
2023-04-03T22:00:10.668Z,7.47
2023-04-03T22:02:41.425Z,7.47
2023-04-03T22:05:09.891Z,5.47
2023-04-03T22:07:38.010Z,4.90
2023-04-03T22:10:06.206Z,5.97
2023-04-03T22:12:34.139Z,9.63
2023-04-03T22:15:02.312Z,3.45
2023-04-03T22:17:31.342Z,5.10
2023-04-03T22:19:59.060Z,4.15
2023-04-03T22:22:27.144Z,4.95
2023-04-03T22:24:55.521Z,7.38
2023-04-03T22:27:22.872Z,4.88
2023-04-03T22:29:50.381Z,6.00
2023-04-03T22:32:17.707Z,5.47
2023-04-03T22:34:46.518Z,4.45
2023-04-03T22:37:14.308Z,4.63
2023-04-03T22:39:41.762Z,4.90
2023-04-03T22:42:09.052Z,4.90
2023-04-03T22:44:36.842Z,6.55
2023-04-03T22:47:04.265Z,3.95
2023-04-03T22:49:32.082Z,11.45
2023-04-03T22:51:59.454Z,5.45
2023-04-03T22:54:26.778Z,4.75
2023-04-03T22:56:54.280Z,4.03
2023-04-03T22:59:21.586Z,9.52
2023-04-03T23:01:49.590Z,6.80
2023-04-03T23:04:17.450Z,4.97
2023-04-03T23:06:44.786Z,3.58
2023-04-03T23:09:12.094Z,6.15
2023-04-03T23:11:39.709Z,2.80
2023-04-03T23:14:06.985Z,5.45
2023-04-03T23:16:34.886Z,7.57
2023-04-03T23:19:03.244Z,7.75
2023-04-03T23:21:30.562Z,3.38
2023-04-03T23:23:58.362Z,4.90
2023-04-03T23:26:26.467Z,4.43
2023-04-03T23:28:53.908Z,4.22
2023-04-03T23:31:21.450Z,4.15
2023-04-03T23:33:48.801Z,5.03
2023-04-03T23:36:16.917Z,4.05
2023-04-03T23:38:44.520Z,5.90
2023-04-03T23:41:12.945Z,5.25
2023-04-03T23:43:41.478Z,2.97
2023-04-03T23:46:08.851Z,4.70
2023-04-03T23:48:36.484Z,5.75
2023-04-03T23:51:03.917Z,9.30
2023-04-03T23:53:31.298Z,5.18
2023-04-03T23:55:59.053Z,4.60
2023-04-03T23:58:26.369Z,5.03
